This is the latest recevied weather packets stored in our database for station/object IZ7EXI-13. If no packets are shown the sender has not sent any weather packets the latest 10 day(s).
| Time | Temp. | Humidity | Pressure | Rain* | Wind** | Luminosity | Snow |
|---|---|---|---|---|---|---|---|
| 1777585057 | 12.78° C | 69% | 1024.2 hPa | - | - | - | - |
| 1777584157 | 12.78° C | 70% | 1024.2 hPa | - | - | - | - |
| 1777583257 | 12.78° C | 70% | 1024.2 hPa | - | - | - | - |
| 1777582357 | 12.78° C | 70% | 1024.3 hPa | - | - | - | - |
| 1777581456 | 12.78° C | 70% | 1024.4 hPa | - | - | - | - |
| 1777580556 | 13.33° C | 69% | 1024.5 hPa | - | - | - | - |
| 1777579656 | 13.33° C | 67% | 1024.5 hPa | - | - | - | - |
| 1777578756 | 14.44° C | 65% | 1024.4 hPa | - | - | - | - |
| 1777577856 | 16.11° C | 60% | 1024.3 hPa | - | - | - | - |
| 1777576955 | 16.11° C | 59% | 1024.1 hPa | - | - | - | - |
| 1777576054 | 16.11° C | 61% | 1024 hPa | - | - | - | - |
| 1777575154 | 16.11° C | 59% | 1023.8 hPa | - | - | - | - |
| 1777574254 | 16.11° C | 61% | 1023.7 hPa | - | - | - | - |
| 1777573353 | 16.11° C | 66% | 1023.6 hPa | - | - | - | - |
| 1777572453 | 16.11° C | 66% | 1023.4 hPa | - | - | - | - |
| 1777571553 | 16.67° C | 65% | 1023.3 hPa | - | - | - | - |
| 1777570652 | 17.22° C | 62% | 1023.2 hPa | - | - | - | - |
| 1777569752 | 17.22° C | 60% | 1023.1 hPa | - | - | - | - |
| 1777568852 | 17.78° C | 57% | 1022.9 hPa | - | - | - | - |
| 1777567951 | 17.22° C | 58% | 1022.9 hPa | - | - | - | - |
| 1777567051 | 17.22° C | 60% | 1022.7 hPa | - | - | - | - |
| 1777566151 | 17.22° C | 60% | 1022.7 hPa | - | - | - | - |
| 1777565251 | 17.22° C | 59% | 1022.7 hPa | - | - | - | - |
| 1777564350 | 17.22° C | 59% | 1022.8 hPa | - | - | - | - |
| 1777563450 | 17.78° C | 61% | 1022.7 hPa | - | - | - | - |
* Rain since midnight (hover to see other rain measurements)
** Current wind speed in m/s (hover to see current wind gust speed)